createdAt,value
2023-03-14T07:51:57.583Z,39.31
2023-03-14T07:54:42.520Z,39.31
2023-03-14T07:57:27.916Z,40.65
2023-03-14T08:00:18.031Z,40.55
2023-03-14T08:06:04.621Z,39.93
2023-03-14T08:08:50.387Z,39.62
2023-03-14T08:11:35.716Z,39.03
2023-03-14T08:14:21.487Z,38.38
2023-03-14T08:17:09.273Z,36.84
2023-03-14T08:19:54.572Z,36.34
2023-03-14T08:22:41.036Z,35.31
2023-03-14T08:25:27.276Z,33.93
2023-03-14T08:28:12.841Z,33.58
2023-03-14T08:30:58.677Z,33.22
2023-03-14T08:33:44.223Z,33.53
2023-03-14T08:36:29.967Z,32.55
2023-03-14T08:39:15.718Z,32.52
2023-03-14T08:42:01.435Z,31.63
2023-03-14T08:44:46.927Z,31.51
2023-03-14T08:47:32.058Z,31.40
2023-03-14T08:50:17.681Z,30.85
2023-03-14T08:53:03.946Z,30.64
2023-03-14T08:55:58.854Z,30.24
2023-03-14T08:58:47.477Z,28.28
2023-03-14T09:01:32.836Z,24.46
2023-03-14T09:04:18.522Z,22.29
2023-03-14T09:07:06.064Z,22.23
2023-03-14T09:09:51.630Z,22.60
2023-03-14T09:12:36.904Z,23.28
2023-03-14T09:15:23.357Z,18.09
2023-03-14T09:18:08.945Z,14.64
2023-03-14T09:20:54.284Z,14.89
2023-03-14T09:23:40.162Z,15.19
2023-03-14T09:26:25.144Z,14.78
2023-03-14T09:29:10.579Z,17.46
2023-03-14T09:31:58.309Z,16.76
2023-03-14T09:34:45.602Z,19.00
2023-03-14T09:37:33.766Z,17.99
2023-03-14T09:40:21.521Z,16.18
2023-03-14T09:43:07.045Z,14.51
2023-03-14T09:45:53.159Z,12.66
2023-03-14T09:48:38.829Z,13.41
2023-03-14T09:51:24.816Z,11.86
2023-03-14T09:54:24.793Z,12.04
2023-03-14T09:57:15.278Z,11.92
2023-03-14T10:00:15.456Z,12.03
2023-03-14T10:03:30.444Z,12.79
2023-03-14T10:06:16.455Z,12.63
2023-03-14T10:09:02.572Z,12.44
2023-03-14T10:11:48.592Z,12.71
2023-03-14T10:14:39.326Z,12.82
2023-03-14T10:17:24.649Z,12.28
2023-03-14T10:20:33.302Z,12.22
2023-03-14T10:23:20.424Z,12.36
2023-03-14T10:26:11.111Z,12.16
2023-03-14T10:29:23.137Z,11.86
2023-03-14T10:32:20.426Z,11.43
2023-03-14T10:35:23.931Z,10.89
2023-03-14T10:38:13.731Z,10.94
2023-03-14T10:41:00.344Z,11.16
2023-03-14T10:43:46.057Z,10.37
2023-03-14T10:46:33.896Z,11.23
2023-03-14T10:49:34.484Z,10.98
2023-03-14T10:52:31.076Z,10.92
2023-03-14T10:55:21.624Z,10.59
2023-03-14T10:58:19.683Z,10.92
2023-03-14T11:01:17.402Z,9.35
2023-03-14T11:04:06.520Z,9.28
2023-03-14T11:07:04.789Z,9.31
2023-03-14T11:10:01.979Z,9.98
2023-03-14T11:13:17.247Z,10.97
2023-03-14T11:16:05.997Z,10.32
2023-03-14T11:19:08.366Z,11.06
